Time;durP1;ratioP1;P1;durP2;ratioP2;P2;SDS_P1;SDS_P2;PMS_P1;PMS_P2;Temp;Humidity;BMP_temperature;BMP_pressure;BME280_temperature;BME280_humidity;BME280_pressure;Samples;Min_cycle;Max_cycle;Signal;HPM_P1;HPM_P2
2024/01/14 00:00:34;;;;;;;39.65;21.00;;;;;;;5.20;83.56;99477.72;4973111;28;20148;-77
2024/01/14 00:03:01;;;;;;;38.35;19.77;;;;;;;5.21;83.36;99466.38;4972951;28;20074;-76
2024/01/14 00:05:28;;;;;;;34.05;18.83;;;;;;;5.20;83.57;99456.84;4973149;28;20089;-75
2024/01/14 00:07:56;;;;;;;32.85;17.98;;;;;;;5.22;83.81;99460.22;4973263;28;20061;-73
2024/01/14 00:10:22;;;;;;;37.13;19.80;;;;;;;5.22;83.41;99460.22;4956177;28;20058;-77
2024/01/14 00:12:50;;;;;;;35.42;19.35;;;;;;;5.23;83.22;99459.31;4972765;28;20050;-73
2024/01/14 00:15:18;;;;;;;36.08;19.63;;;;;;;5.24;83.66;99461.03;4973191;28;20078;-77
2024/01/14 00:17:46;;;;;;;37.08;21.00;;;;;;;5.25;83.46;99461.88;5177290;23;20065;-77
2024/01/14 00:20:13;;;;;;;32.03;18.45;;;;;;;5.25;83.56;99459.25;4956153;28;20120;-78
2024/01/14 00:22:39;;;;;;;32.03;18.52;;;;;;;5.26;83.63;99458.34;4973242;28;20054;-76
2024/01/14 00:25:06;;;;;;;35.13;18.33;;;;;;;5.27;83.52;99450.47;4972890;28;20558;-77
2024/01/14 00:27:33;;;;;;;31.23;17.58;;;;;;;5.26;83.02;99443.53;4955470;28;20050;-78
2024/01/14 00:30:00;;;;;;;35.65;19.17;;;;;;;5.26;83.27;99430.50;4972616;28;20058;-81
2024/01/14 00:32:26;;;;;;;30.85;16.65;;;;;;;5.26;83.16;99433.09;4972311;28;20117;-78
2024/01/14 00:34:53;;;;;;;29.80;16.40;;;;;;;5.25;83.34;99428.81;4972577;28;20191;-79
2024/01/14 00:37:20;;;;;;;28.08;14.85;;;;;;;5.26;83.23;99434.84;4972645;28;20081;-79
2024/01/14 00:39:46;;;;;;;24.67;15.10;;;;;;;5.26;83.41;99433.09;4972483;28;20062;-78
2024/01/14 00:42:13;;;;;;;25.65;15.02;;;;;;;5.26;83.32;99430.50;4972546;28;20105;-78
2024/01/14 00:44:41;;;;;;;23.63;14.23;;;;;;;5.26;83.17;99427.03;4972474;28;20146;-78
2024/01/14 00:47:08;;;;;;;25.38;13.27;;;;;;;5.26;83.22;99425.28;4972628;28;20086;-77
2024/01/14 00:49:34;;;;;;;24.20;13.88;;;;;;;5.26;83.05;99407.00;4972502;28;20142;-78
2024/01/14 00:52:01;;;;;;;19.65;12.40;;;;;;;5.25;82.95;99413.16;4972211;28;20094;-81
2024/01/14 00:54:28;;;;;;;23.58;12.73;;;;;;;5.24;82.76;99406.25;4971665;28;20047;-79
2024/01/14 00:56:55;;;;;;;21.88;12.98;;;;;;;5.23;82.98;99404.50;4955332;28;20050;-81
2024/01/14 00:59:21;;;;;;;23.15;13.48;;;;;;;5.22;82.82;99405.44;4972226;28;20090;-77
2024/01/14 01:01:48;;;;;;;19.77;12.45;;;;;;;5.23;83.05;99401.91;4971935;28;20058;-76
2024/01/14 01:04:14;;;;;;;26.45;14.70;;;;;;;5.21;82.90;99404.56;4972234;28;20409;-77
2024/01/14 01:06:41;;;;;;;23.50;13.45;;;;;;;5.21;82.96;99403.75;4955152;28;20137;-79
2024/01/14 01:09:08;;;;;;;24.55;14.10;;;;;;;5.20;83.06;99392.44;4972165;28;20043;-80
2024/01/14 01:11:34;;;;;;;27.13;14.43;;;;;;;5.22;83.27;99395.00;4954584;28;20089;-78
2024/01/14 01:14:01;;;;;;;22.90;13.55;;;;;;;5.21;83.15;99394.13;4971880;28;20098;-79
2024/01/14 01:16:27;;;;;;;27.75;15.10;;;;;;;5.21;83.44;99388.09;4972224;28;20070;-77
2024/01/14 01:18:54;;;;;;;26.02;14.32;;;;;;;5.22;83.36;99385.41;4972133;28;20046;-78
2024/01/14 01:21:22;;;;;;;24.27;14.38;;;;;;;5.24;83.39;99392.34;4971674;28;20047;-80
2024/01/14 01:23:49;;;;;;;24.48;13.95;;;;;;;5.25;83.39;99392.28;4971913;28;20133;-78
2024/01/14 01:26:16;;;;;;;27.27;15.82;;;;;;;5.25;83.48;99376.63;4972091;28;20058;-80
2024/01/14 01:28:42;;;;;;;30.50;17.08;;;;;;;5.27;83.32;99379.16;4971794;28;20505;-79
2024/01/14 01:31:09;;;;;;;32.63;15.98;;;;;;;5.28;83.32;99384.31;4971805;28;20050;-78
2024/01/14 01:33:35;;;;;;;27.77;15.40;;;;;;;5.29;83.27;99377.31;4971832;28;20047;-80
2024/01/14 01:36:02;;;;;;;27.85;15.35;;;;;;;5.31;83.30;99372.91;4954701;28;20106;-79
2024/01/14 01:38:29;;;;;;;35.47;17.95;;;;;;;5.31;83.14;99371.13;4971860;28;20047;-78
2024/01/14 01:40:55;;;;;;;33.83;17.08;;;;;;;5.31;83.08;99363.28;4971338;28;20051;-78
2024/01/14 01:43:22;;;;;;;31.73;16.50;;;;;;;5.31;83.25;99365.91;4971805;28;20086;-79
2024/01/14 01:45:49;;;;;;;34.53;18.30;;;;;;;5.30;83.09;99359.00;4971929;28;20079;-80
2024/01/14 01:48:15;;;;;;;31.92;17.02;;;;;;;5.31;82.97;99352.03;4954447;28;20130;-77
2024/01/14 01:50:46;;;;;;;33.90;16.73;;;;;;;5.31;83.00;99355.47;4971589;28;20692;-78
2024/01/14 01:53:12;;;;;;;28.73;15.75;;;;;;;5.32;83.35;99356.31;4954405;28;20057;-78
2024/01/14 01:55:39;;;;;;;29.20;15.80;;;;;;;5.33;83.33;99355.41;4954371;28;20058;-78
2024/01/14 01:58:06;;;;;;;31.48;16.08;;;;;;;5.32;83.24;99346.75;4971788;28;20113;-78
2024/01/14 02:00:34;;;;;;;34.22;17.20;;;;;;;5.33;83.21;99343.22;4971671;28;20093;-78
2024/01/14 02:03:03;;;;;;;26.80;15.82;;;;;;;5.33;83.23;99353.66;4954361;28;20057;-78
2024/01/14 02:05:34;;;;;;;28.75;15.48;;;;;;;5.34;83.32;99350.13;4971603;28;20102;-77
2024/01/14 02:08:00;;;;;;;32.78;16.38;;;;;;;5.35;83.53;99345.78;4973971;28;20113;-79
2024/01/14 02:10:27;;;;;;;31.88;16.52;;;;;;;5.37;83.47;99343.94;4975374;28;20463;-78
2024/01/14 02:12:56;;;;;;;29.33;14.70;;;;;;;5.36;83.32;99342.25;4957874;28;20748;-77
2024/01/14 02:15:22;;;;;;;27.50;14.90;;;;;;;5.38;83.77;99344.78;4975252;28;20061;-77
2024/01/14 02:17:49;;;;;;;28.33;15.20;;;;;;;5.40;83.36;99333.38;4975183;28;20047;-79
2024/01/14 02:20:16;;;;;;;27.17;14.98;;;;;;;5.42;83.55;99341.13;4975111;28;20086;-81
2024/01/14 02:22:44;;;;;;;26.92;15.07;;;;;;;5.41;83.08;99337.66;4957475;28;20141;-77
2024/01/14 02:25:12;;;;;;;27.92;15.48;;;;;;;5.44;83.44;99344.50;4974948;28;20611;-81
2024/01/14 02:27:38;;;;;;;29.90;15.45;;;;;;;5.45;83.28;99330.53;4957983;28;20046;-78
2024/01/14 02:30:07;;;;;;;30.13;15.68;;;;;;;5.45;83.04;99327.94;4975008;28;20058;-80
2024/01/14 02:32:37;;;;;;;30.15;14.77;;;;;;;5.44;83.25;99319.28;4957493;28;20093;-78
2024/01/14 02:35:05;;;;;;;24.88;14.82;;;;;;;5.44;83.02;99315.81;4957592;28;20042;-80
2024/01/14 02:37:32;;;;;;;24.75;13.57;;;;;;;5.45;83.15;99315.75;4974944;28;20129;-77
2024/01/14 02:39:59;;;;;;;24.90;13.75;;;;;;;5.45;83.05;99314.88;4974761;28;20082;-79
2024/01/14 02:42:26;;;;;;;22.67;12.73;;;;;;;5.45;83.12;99312.28;4974575;28;20050;-78
2024/01/14 02:44:52;;;;;;;24.55;13.35;;;;;;;5.45;83.19;99304.44;4974740;28;20054;-76
2024/01/14 02:47:19;;;;;;;27.73;12.77;;;;;;;5.45;83.47;99315.75;4974664;28;20396;-80
2024/01/14 02:49:46;;;;;;;26.30;12.25;;;;;;;5.46;83.70;99308.78;4974425;28;20100;-78
2024/01/14 02:52:13;;;;;;;26.23;12.15;;;;;;;5.46;83.09;99296.53;4974272;28;20492;-77
2024/01/14 02:54:40;;;;;;;22.10;11.55;;;;;;;5.47;83.25;99306.06;4974504;28;20442;-78
2024/01/14 02:57:06;;;;;;;23.10;11.15;;;;;;;5.48;83.53;99306.94;4974510;28;20055;-79
2024/01/14 02:59:33;;;;;;;22.40;12.05;;;;;;;5.50;83.58;99299.03;4957242;28;20069;-77
2024/01/14 03:01:59;;;;;;;24.67;12.07;;;;;;;5.50;83.49;99292.06;4974034;28;20051;-77
2024/01/14 03:04:27;;;;;;;22.85;11.63;;;;;;;5.50;83.18;99297.28;4974420;28;20046;-76
2024/01/14 03:06:54;;;;;;;24.30;12.65;;;;;;;5.52;83.19;99297.19;4974428;28;20058;-78
2024/01/14 03:09:21;;;;;;;24.40;11.27;;;;;;;5.52;83.17;99291.97;4974333;28;20047;-78
2024/01/14 03:11:48;;;;;;;21.73;11.27;;;;;;;5.53;83.50;99301.53;4956804;28;20145;-79
2024/01/14 03:14:14;;;;;;;21.77;10.65;;;;;;;5.53;83.59;99291.91;4974062;28;20050;-78
2024/01/14 03:16:41;;;;;;;19.70;10.82;;;;;;;5.54;83.56;99296.25;4956691;28;20577;-77
2024/01/14 03:19:08;;;;;;;23.65;11.95;;;;;;;5.55;83.14;99292.69;4973559;28;20047;-80
2024/01/14 03:21:35;;;;;;;22.88;10.55;;;;;;;5.56;83.07;99301.38;4956662;28;20146;-77
2024/01/14 03:24:01;;;;;;;22.20;10.68;;;;;;;5.55;83.28;99282.25;4973799;28;20073;-79
2024/01/14 03:26:28;;;;;;;23.08;11.15;;;;;;;5.55;83.08;99295.31;4973922;28;20137;-79
2024/01/14 03:28:55;;;;;;;22.40;9.50;;;;;;;5.57;83.23;99297.88;4973844;28;20109;-79
2024/01/14 03:31:22;;;;;;;18.10;9.65;;;;;;;5.57;83.35;99297.88;4956352;28;20047;-78
2024/01/14 03:33:49;;;;;;;22.33;9.48;;;;;;;5.59;83.40;99296.00;4973618;28;20558;-80
2024/01/14 03:36:16;;;;;;;22.17;9.20;;;;;;;5.61;83.42;99291.59;4973797;28;20475;-77
2024/01/14 03:38:43;;;;;;;15.43;9.10;;;;;;;5.61;83.52;99284.59;4956559;28;20050;-80
2024/01/14 03:41:09;;;;;;;20.30;9.13;;;;;;;5.64;83.11;99293.22;4973400;28;20098;-79
2024/01/14 03:43:36;;;;;;;19.05;9.52;;;;;;;5.65;83.08;99295.75;4956222;28;20089;-78
2024/01/14 03:46:03;;;;;;;16.73;8.82;;;;;;;5.65;83.24;99290.53;4973423;28;20137;-78
2024/01/14 03:48:29;;;;;;;17.77;8.48;;;;;;;5.66;83.52;99293.97;4973596;28;20059;-79
2024/01/14 03:50:56;;;;;;;22.25;8.27;;;;;;;5.67;83.21;99290.44;4973249;28;20055;-78
2024/01/14 03:53:23;;;;;;;21.83;8.90;;;;;;;5.68;83.50;99289.56;4973257;28;20047;-78
2024/01/14 03:55:50;;;;;;;18.23;8.65;;;;;;;5.69;83.26;99280.78;4973308;28;20057;-79
2024/01/14 03:58:17;;;;;;;19.10;7.53;;;;;;;5.69;83.15;99279.00;4973218;28;20050;-79
2024/01/14 04:00:43;;;;;;;15.70;7.90;;;;;;;5.71;83.16;99273.72;4973137;28;20106;-76
2024/01/14 04:03:10;;;;;;;19.42;7.63;;;;;;;5.72;82.98;99273.66;4973211;28;20136;-77
2024/01/14 04:05:36;;;;;;;18.02;8.70;;;;;;;5.73;83.27;99271.91;4973010;28;20496;-80
2024/01/14 04:08:04;;;;;;;20.88;9.07;;;;;;;5.75;83.16;99277.91;4972945;28;20574;-78
2024/01/14 04:10:30;;;;;;;18.08;9.25;;;;;;;5.74;82.87;99268.38;4972998;28;20146;-84
2024/01/14 04:12:57;;;;;;;23.92;8.73;;;;;;;5.75;82.78;99272.69;4972663;28;20051;-80
2024/01/14 04:15:24;;;;;;;18.95;8.27;;;;;;;5.76;82.80;99274.41;4972856;28;20058;-78
2024/01/14 04:17:50;;;;;;;17.55;8.63;;;;;;;5.76;82.82;99273.53;4972935;28;20051;-79
2024/01/14 04:20:17;;;;;;;23.05;7.97;;;;;;;5.74;82.44;99266.63;4972870;28;20088;-80
2024/01/14 04:22:43;;;;;;;21.55;8.38;;;;;;;5.72;82.34;99255.38;4955228;28;20059;-79
2024/01/14 04:25:10;;;;;;;16.08;7.88;;;;;;;5.73;82.54;99256.25;4972677;28;20051;-77
2024/01/14 04:27:38;;;;;;;15.90;7.65;;;;;;;5.72;82.22;99257.16;4972697;28;20059;-77
2024/01/14 04:30:06;;;;;;;17.73;7.45;;;;;;;5.70;82.44;99251.16;4971965;28;20144;-78
2024/01/14 04:32:33;;;;;;;18.40;7.88;;;;;;;5.70;82.17;99251.16;4972297;28;20471;-78
2024/01/14 04:35:00;;;;;;;19.85;8.10;;;;;;;5.68;82.10;99243.38;4972541;28;20109;-79
2024/01/14 04:37:27;;;;;;;18.42;8.65;;;;;;;5.67;82.13;99248.66;4972498;28;20134;-78
2024/01/14 04:39:55;;;;;;;17.38;8.05;;;;;;;5.66;82.27;99252.19;4972568;28;20054;-80
2024/01/14 04:42:23;;;;;;;18.38;7.95;;;;;;;5.65;82.31;99248.75;4972082;28;20051;-77
2024/01/14 04:44:50;;;;;;;15.20;7.50;;;;;;;5.65;82.28;99250.50;4972506;28;20066;-76
2024/01/14 04:47:16;;;;;;;16.05;8.60;;;;;;;5.66;82.33;99244.38;4972467;28;20055;-81
2024/01/14 04:49:43;;;;;;;16.83;8.23;;;;;;;5.64;82.71;99236.59;4972349;28;20061;-79
2024/01/14 04:52:10;;;;;;;17.70;8.75;;;;;;;5.64;82.56;99233.16;4954954;28;20054;-77
2024/01/14 04:54:36;;;;;;;16.80;8.40;;;;;;;5.63;82.71;99241.88;4972020;28;20093;-78
2024/01/14 04:57:03;;;;;;;18.38;9.35;;;;;;;5.63;82.27;99236.66;4972425;28;20077;-79
2024/01/14 04:59:30;;;;;;;18.85;9.32;;;;;;;5.62;82.17;99238.44;4972288;28;20397;-79
2024/01/14 05:01:56;;;;;;;17.40;8.55;;;;;;;5.62;82.48;99238.44;4971903;28;20050;-78
2024/01/14 05:04:23;;;;;;;18.17;8.57;;;;;;;5.62;82.54;99243.66;4972085;28;20109;-78
2024/01/14 05:06:49;;;;;;;19.20;7.88;;;;;;;5.63;82.47;99247.09;4972141;28;20055;-79
2024/01/14 05:09:17;;;;;;;18.15;8.38;;;;;;;5.63;82.49;99249.72;4971864;28;20055;-77
2024/01/14 05:11:44;;;;;;;17.42;9.32;;;;;;;5.62;82.57;99243.66;4972044;28;20046;-78
2024/01/14 05:14:10;;;;;;;20.95;9.07;;;;;;;5.62;82.56;99238.44;4971981;28;20893;-78
2024/01/14 05:16:37;;;;;;;18.00;8.50;;;;;;;5.61;82.30;99237.59;4972040;28;20057;-78
2024/01/14 05:19:03;;;;;;;15.80;7.95;;;;;;;5.61;82.09;99242.81;4952542;29;20498;-79
2024/01/14 05:21:30;;;;;;;18.63;9.23;;;;;;;5.62;82.47;99241.06;4952292;29;20054;-78
2024/01/14 05:23:57;;;;;;;17.23;8.48;;;;;;;5.61;82.44;99236.75;4952410;29;20059;-77
2024/01/14 05:26:26;;;;;;;14.70;8.30;;;;;;;5.60;82.33;99233.28;4935613;29;20055;-78
2024/01/14 05:28:55;;;;;;;19.48;7.90;;;;;;;5.60;82.65;99235.91;4952615;29;20122;-77
2024/01/14 05:31:21;;;;;;;15.55;7.75;;;;;;;5.60;82.49;99229.81;4952366;29;20167;-79
2024/01/14 05:33:48;;;;;;;16.67;8.15;;;;;;;5.59;82.33;99233.34;4952446;29;20487;-78
2024/01/14 05:36:14;;;;;;;18.88;8.35;;;;;;;5.58;82.31;99227.28;4952445;29;20053;-78
2024/01/14 05:38:42;;;;;;;18.80;8.85;;;;;;;5.57;82.30;99227.38;4952411;29;20047;-80
2024/01/14 05:41:11;;;;;;;21.27;8.98;;;;;;;5.55;82.00;99237.03;4953501;28;20138;-78
2024/01/14 05:43:38;;;;;;;16.90;8.30;;;;;;;5.55;82.02;99226.56;4956196;29;20687;-78
2024/01/14 05:46:05;;;;;;;15.82;8.07;;;;;;;5.52;81.80;99222.34;4956417;29;20081;-78
2024/01/14 05:48:32;;;;;;;16.98;7.97;;;;;;;5.50;82.16;99224.19;4956244;29;20086;-80
2024/01/14 05:50:59;;;;;;;17.67;9.18;;;;;;;5.50;82.25;99233.78;4956013;29;20052;-78
2024/01/14 05:53:27;;;;;;;20.52;9.40;;;;;;;5.48;82.48;99228.63;4956322;29;20055;-78
2024/01/14 05:55:53;;;;;;;19.13;9.98;;;;;;;5.49;82.39;99230.31;4939186;29;20093;-77
2024/01/14 05:58:20;;;;;;;20.10;10.55;;;;;;;5.47;82.26;99225.13;4939175;29;20055;-78
2024/01/14 06:00:46;;;;;;;18.42;10.30;;;;;;;5.45;82.22;99218.31;4938929;29;20110;-76
2024/01/14 06:03:13;;;;;;;20.30;10.57;;;;;;;5.46;82.15;99222.63;4938927;29;20109;-80
2024/01/14 06:05:40;;;;;;;23.15;11.23;;;;;;;5.43;81.99;99207.09;4956027;29;20122;-81
2024/01/14 06:08:06;;;;;;;19.77;10.75;;;;;;;5.41;82.00;99209.78;4956014;29;20051;-80
2024/01/14 06:10:32;;;;;;;27.27;11.57;;;;;;;5.41;82.35;99219.34;4956011;29;20166;-81
2024/01/14 06:12:59;;;;;;;20.63;11.57;;;;;;;5.40;82.28;99208.06;4955912;29;20055;-80
2024/01/14 06:15:26;;;;;;;22.33;12.25;;;;;;;5.39;82.13;99206.41;4955895;29;20420;-82
2024/01/14 06:17:53;;;;;;;21.42;12.60;;;;;;;5.39;82.40;99205.53;4999337;23;20055;-73
2024/01/14 06:20:19;;;;;;;24.98;12.98;;;;;;;5.38;82.24;99198.63;4975940;28;20058;-73
2024/01/14 06:22:46;;;;;;;25.17;13.55;;;;;;;5.38;82.23;99198.63;4974934;28;20054;-72
2024/01/14 06:25:13;;;;;;;28.30;14.15;;;;;;;5.37;82.42;99186.47;4975248;28;20047;-73
2024/01/14 06:27:39;;;;;;;25.45;14.27;;;;;;;5.35;82.09;99189.19;4975126;28;20161;-74
2024/01/14 06:30:07;;;;;;;27.35;14.23;;;;;;;5.32;82.04;99187.56;4975326;28;20105;-72
2024/01/14 06:32:33;;;;;;;20.98;13.20;;;;;;;5.31;81.83;99178.00;4957477;28;20051;-73
2024/01/14 06:35:00;;;;;;;27.60;13.85;;;;;;;5.30;82.18;99175.47;4975173;28;20524;-73
2024/01/14 06:37:27;;;;;;;24.77;13.73;;;;;;;5.29;82.21;99184.22;4975038;28;20047;-73
2024/01/14 06:39:53;;;;;;;23.67;13.73;;;;;;;5.26;82.22;99169.53;4974941;28;20051;-73
2024/01/14 06:42:20;;;;;;;26.15;13.30;;;;;;;5.25;82.05;99172.22;4974544;28;20102;-74
2024/01/14 06:44:47;;;;;;;26.05;12.93;;;;;;;5.24;82.24;99167.91;4974617;28;20472;-72
2024/01/14 06:47:13;;;;;;;28.02;13.40;;;;;;;5.21;82.25;99169.72;4974500;28;20471;-71
2024/01/14 06:49:40;;;;;;;22.77;12.85;;;;;;;5.22;82.60;99167.97;4974889;28;20042;-73
2024/01/14 06:52:07;;;;;;;21.85;12.43;;;;;;;5.21;82.57;99164.50;4973988;28;20109;-73
2024/01/14 06:54:37;;;;;;;26.95;14.88;;;;;;;5.20;82.41;99167.22;4974192;28;20401;-72
2024/01/14 06:57:04;;;;;;;26.63;13.88;;;;;;;5.20;82.47;99164.59;4974509;28;20142;-73
2024/01/14 06:59:31;;;;;;;25.83;13.10;;;;;;;5.19;82.28;99165.50;4957256;28;20427;-74
2024/01/14 07:01:57;;;;;;;24.30;13.23;;;;;;;5.18;82.36;99161.19;4974098;28;20051;-73
2024/01/14 07:04:24;;;;;;;27.95;13.98;;;;;;;5.17;82.47;99160.38;4956951;28;20514;-72
2024/01/14 07:06:51;;;;;;;29.13;14.85;;;;;;;5.15;82.19;99162.19;4974370;28;20140;-73
2024/01/14 07:09:17;;;;;;;26.35;14.60;;;;;;;5.15;82.40;99161.31;4974267;28;20138;-73
2024/01/14 07:11:44;;;;;;;28.23;15.25;;;;;;;5.14;82.25;99162.25;4974153;28;20140;-71
2024/01/14 07:14:11;;;;;;;27.40;14.68;;;;;;;5.13;82.36;99161.41;4974069;28;20054;-73
2024/01/14 07:16:37;;;;;;;31.45;15.82;;;;;;;5.13;82.50;99158.81;4973969;28;20455;-73
2024/01/14 07:19:04;;;;;;;31.42;16.20;;;;;;;5.13;82.41;99163.16;4974374;28;20401;-73
2024/01/14 07:21:31;;;;;;;26.90;15.70;;;;;;;5.11;82.49;99155.41;4956774;28;20062;-73
2024/01/14 07:23:58;;;;;;;30.80;16.02;;;;;;;5.12;82.32;99162.31;4973946;28;20054;-73
2024/01/14 07:26:25;;;;;;;32.88;16.80;;;;;;;5.11;82.41;99154.56;4974036;28;20467;-73
2024/01/14 07:28:52;;;;;;;32.58;16.70;;;;;;;5.09;82.18;99155.47;4973967;28;20065;-72
2024/01/14 07:31:23;;;;;;;29.67;16.05;;;;;;;5.09;82.28;99158.06;4973744;28;20093;-73
2024/01/14 07:33:50;;;;;;;28.83;15.15;;;;;;;5.09;82.64;99165.06;5025915;23;20034;-71
2024/01/14 07:38:45;;;;;;;27.85;15.18;;;;;;;5.08;82.42;99161.59;4949833;23;20077;-72
2024/01/14 07:41:15;;;;;;;26.40;15.07;;;;;;;5.09;82.41;99157.25;4973346;28;20062;-74
2024/01/14 07:43:42;;;;;;;30.80;15.88;;;;;;;5.10;82.50;99158.94;4973495;28;20058;-71
2024/01/14 07:46:09;;;;;;;33.17;17.42;;;;;;;5.09;82.25;99159.88;4973569;28;20089;-73
2024/01/14 07:48:36;;;;;;;32.35;18.08;;;;;;;5.07;82.15;99162.53;4973575;28;20054;-72
2024/01/14 07:51:03;;;;;;;35.95;19.02;;;;;;;5.06;82.35;99158.25;4973277;28;20055;-73
2024/01/14 07:53:30;;;;;;;35.22;19.48;;;;;;;5.05;82.07;99156.53;4973282;28;20047;-73
2024/01/14 07:55:56;;;;;;;36.25;19.77;;;;;;;5.03;82.36;99158.38;5256917;23;20055;-72
2024/01/14 07:58:24;;;;;;;33.90;19.00;;;;;;;5.02;82.39;99161.03;4973325;28;20487;-72
2024/01/14 08:00:51;;;;;;;35.80;19.48;;;;;;;5.02;82.28;99166.25;4973206;28;20096;-72
2024/01/14 08:03:28;;;;;;;36.13;18.60;;;;;;;5.00;82.44;99147.19;4973199;28;20097;-72
2024/01/14 08:05:55;;;;;;;39.65;19.33;;;;;;;4.99;82.54;99159.41;4973332;28;20050;-72
2024/01/14 08:08:23;;;;;;;36.65;19.52;;;;;;;4.99;82.59;99153.34;4973130;28;20157;-72
2024/01/14 08:10:51;;;;;;;39.78;20.75;;;;;;;4.98;82.46;99152.50;4973209;28;20125;-73
2024/01/14 08:13:18;;;;;;;37.08;19.67;;;;;;;4.97;82.42;99147.34;4973179;28;20055;-72
2024/01/14 08:15:45;;;;;;;38.42;20.58;;;;;;;4.93;82.13;99164.88;4973087;28;20496;-76
2024/01/14 08:18:26;;;;;;;37.72;19.35;;;;;;;4.91;81.75;99153.69;4973059;28;20469;-72
2024/01/14 08:20:53;;;;;;;40.38;20.15;;;;;;;4.88;81.94;99156.41;4972421;28;20054;-70
2024/01/14 08:23:20;;;;;;;38.65;18.73;;;;;;;4.85;81.86;99164.38;4972428;28;20081;-73
2024/01/14 08:25:46;;;;;;;35.55;18.30;;;;;;;4.82;82.21;99162.72;4956001;28;20447;-73
2024/01/14 08:28:13;;;;;;;34.85;19.42;;;;;;;4.79;81.75;99155.06;4973027;28;20043;-72
2024/01/14 08:30:40;;;;;;;34.83;18.55;;;;;;;4.78;82.04;99158.56;4972736;28;20047;-72
2024/01/14 08:33:07;;;;;;;36.10;17.90;;;;;;;4.76;82.24;99163.88;4972826;28;20069;-72
2024/01/14 08:35:34;;;;;;;32.17;17.52;;;;;;;4.73;82.37;99163.97;4972754;28;20054;-72
2024/01/14 08:38:01;;;;;;;31.42;17.75;;;;;;;4.72;82.14;99153.63;4972816;28;20215;-72
2024/01/14 08:40:28;;;;;;;32.03;17.88;;;;;;;4.69;81.99;99154.59;4972675;28;20059;-72
2024/01/14 08:42:55;;;;;;;30.20;17.08;;;;;;;4.67;82.06;99149.44;4972433;28;20050;-73
2024/01/14 08:45:21;;;;;;;31.58;17.27;;;;;;;4.65;82.17;99150.44;4972382;28;20057;-73
2024/01/14 08:47:48;;;;;;;31.40;17.10;;;;;;;4.62;81.83;99148.78;4955373;28;20042;-72
2024/01/14 08:50:15;;;;;;;31.73;17.95;;;;;;;4.60;82.04;99141.97;4972400;28;20165;-72
2024/01/14 08:52:42;;;;;;;30.90;17.33;;;;;;;4.55;81.86;99145.59;4972185;28;20058;-72
2024/01/14 08:55:09;;;;;;;38.33;20.15;;;;;;;4.53;82.04;99147.41;4972442;28;20058;-71
2024/01/14 08:57:36;;;;;;;33.88;19.75;;;;;;;4.50;81.94;99138.88;4972396;28;20106;-72
2024/01/14 09:00:04;;;;;;;36.42;19.25;;;;;;;4.50;82.33;99139.75;4972234;28;20117;-72
2024/01/14 09:02:31;;;;;;;38.58;19.52;;;;;;;4.48;82.38;99144.16;4971960;28;20399;-73
2024/01/14 09:04:57;;;;;;;36.30;18.83;;;;;;;4.48;82.16;99144.16;4972183;28;20055;-72
2024/01/14 09:07:26;;;;;;;36.38;20.17;;;;;;;4.46;82.21;99132.97;4971913;28;20542;-73
2024/01/14 09:09:52;;;;;;;33.85;18.70;;;;;;;4.45;82.06;99131.25;4972258;28;20059;-73
2024/01/14 09:12:19;;;;;;;33.55;18.58;;;;;;;4.43;81.93;99130.47;4954847;28;20105;-73
2024/01/14 09:14:46;;;;;;;35.58;19.33;;;;;;;4.39;81.89;99131.50;4972132;28;20061;-73
2024/01/14 09:17:12;;;;;;;37.22;19.70;;;;;;;4.36;81.99;99135.09;4927514;23;20057;-71
2024/01/14 09:19:40;;;;;;;33.72;18.13;;;;;;;4.35;82.10;99138.63;4971848;28;20082;-72
2024/01/14 09:22:07;;;;;;;37.55;19.20;;;;;;;4.32;82.06;99130.91;4971780;28;20055;-73
2024/01/14 09:24:34;;;;;;;38.83;19.88;;;;;;;4.30;81.87;99143.19;4971706;28;20526;-72
2024/01/14 09:27:00;;;;;;;35.55;20.00;;;;;;;4.27;82.05;99127.66;4972001;28;20051;-72
2024/01/14 09:29:27;;;;;;;37.95;19.60;;;;;;;4.24;81.93;99133.84;4971850;28;20059;-72
2024/01/14 09:31:54;;;;;;;38.00;18.98;;;;;;;4.22;82.07;99133.06;4971416;28;20101;-72
2024/01/14 09:34:21;;;;;;;40.60;21.20;;;;;;;4.20;82.23;99139.22;4971785;28;20475;-72
2024/01/14 09:36:48;;;;;;;37.97;20.65;;;;;;;4.19;82.33;99130.59;4971698;28;20046;-73
2024/01/14 09:39:14;;;;;;;35.45;19.63;;;;;;;4.16;82.21;99134.16;4971750;28;20151;-72
2024/01/14 09:42:14;;;;;;;37.78;20.10;;;;;;;4.11;81.46;99128.28;4971489;28;20058;-72
2024/01/14 09:44:41;;;;;;;35.03;17.05;;;;;;;4.14;82.36;99128.16;4971311;28;20051;-72
2024/01/14 09:47:10;;;;;;;36.03;17.83;;;;;;;4.13;82.17;99125.63;4971635;28;20073;-72
2024/01/14 09:49:36;;;;;;;33.60;18.25;;;;;;;4.12;82.42;99121.31;4954344;28;20105;-70
2024/01/14 09:52:04;;;;;;;33.25;17.75;;;;;;;4.09;82.00;99117.09;4971305;28;20097;-72
2024/01/14 09:54:32;;;;;;;30.60;17.45;;;;;;;4.08;82.16;99119.75;4971457;28;20055;-73
2024/01/14 09:57:05;;;;;;;33.30;18.55;;;;;;;4.04;81.78;99117.25;4971364;28;20141;-72
2024/01/14 09:59:34;;;;;;;31.15;17.85;;;;;;;4.02;82.02;99110.41;4954150;28;20051;-72
2024/01/14 10:02:01;;;;;;;30.25;17.02;;;;;;;3.99;81.95;99118.34;4971227;28;20077;-72
2024/01/14 10:04:28;;;;;;;31.80;18.25;;;;;;;3.98;82.27;99124.47;4971286;28;20109;-72
2024/01/14 10:06:55;;;;;;;34.17;18.38;;;;;;;3.97;82.19;99130.59;4971264;28;20059;-72
2024/01/14 10:09:23;;;;;;;32.67;17.70;;;;;;;3.95;82.19;99120.25;4953992;28;20054;-72
2024/01/14 10:11:50;;;;;;;31.17;17.73;;;;;;;3.94;82.59;99109.88;4971160;28;20145;-72
2024/01/14 10:14:24;;;;;;;35.05;17.92;;;;;;;3.94;82.59;99108.13;4971265;28;20054;-72
2024/01/14 10:16:50;;;;;;;35.47;18.48;;;;;;;3.93;82.36;99103.00;4970892;28;20095;-73
2024/01/14 10:19:22;;;;;;;36.00;18.13;;;;;;;3.93;82.36;99108.19;4971315;28;20093;-72
2024/01/14 10:21:52;;;;;;;33.28;18.27;;;;;;;3.90;82.19;99101.34;4953706;28;20102;-72
2024/01/14 10:24:39;;;;;;;34.03;18.17;;;;;;;3.89;82.00;99100.50;4956514;28;20047;-72
2024/01/14 10:27:06;;;;;;;31.95;18.10;;;;;;;3.86;81.85;99091.97;4971249;28;20058;-73
2024/01/14 10:29:33;;;;;;;32.22;17.02;;;;;;;3.83;81.70;99084.28;4974277;28;20054;-72
2024/01/14 10:32:00;;;;;;;31.00;17.05;;;;;;;3.80;81.79;99081.78;4974631;28;20043;-73
2024/01/14 10:34:40;;;;;;;33.80;18.65;;;;;;;3.73;81.34;99083.78;5096522;23;20129;-71
2024/01/14 10:37:15;;;;;;;32.92;18.02;;;;;;;3.73;82.42;99079.44;4953034;29;20456;-70
2024/01/14 10:39:41;;;;;;;30.85;17.55;;;;;;;3.71;82.36;99078.66;4955134;28;20079;-70
2024/01/14 10:42:08;;;;;;;32.10;18.17;;;;;;;3.70;82.42;99071.75;4954909;29;20187;-72
2024/01/14 10:44:35;;;;;;;33.53;18.63;;;;;;;3.71;82.74;99070.00;4954953;29;20051;-72
2024/01/14 10:47:03;;;;;;;32.33;18.85;;;;;;;3.69;82.66;99072.66;4955320;29;20061;-73
2024/01/14 10:49:34;;;;;;;35.55;20.00;;;;;;;3.70;82.77;99065.72;4955354;29;20097;-72
2024/01/14 10:52:12;;;;;;;38.05;19.92;;;;;;;3.67;82.58;99064.06;4954978;29;20050;-72
2024/01/14 10:54:56;;;;;;;42.90;22.10;;;;;;;3.68;82.43;99049.28;4955006;28;20057;-71
2024/01/14 10:57:36;;;;;;;42.35;21.10;;;;;;;3.70;82.82;99056.13;4954855;29;20055;-72
2024/01/14 11:00:08;;;;;;;47.33;23.23;;;;;;;3.71;82.79;99044.81;4989560;23;20086;-72
2024/01/14 11:02:37;;;;;;;34.10;16.83;;;;;;;3.73;83.23;99043.00;4973973;28;20054;-73
2024/01/14 11:05:05;;;;;;;45.90;23.35;;;;;;;3.73;82.99;99032.59;4974275;28;20043;-71
2024/01/14 11:07:33;;;;;;;46.90;23.50;;;;;;;3.74;83.20;99030.84;4974275;28;20051;-71
2024/01/14 11:10:02;;;;;;;49.45;24.05;;;;;;;3.75;83.36;99033.38;4974045;28;20569;-72
2024/01/14 11:12:44;;;;;;;43.65;23.50;;;;;;;3.72;83.04;99023.09;4973840;28;20050;-73
2024/01/14 11:15:19;;;;;;;45.55;22.98;;;;;;;3.77;83.23;99022.88;4974111;28;20057;-73
2024/01/14 11:18:03;;;;;;;44.78;21.73;;;;;;;3.77;82.87;99028.09;4973969;28;20053;-73
2024/01/14 11:20:32;;;;;;;39.78;20.52;;;;;;;3.81;83.33;99015.81;4974172;28;20102;-73
2024/01/14 11:23:21;;;;;;;42.17;20.08;;;;;;;3.83;83.03;99006.16;4959289;28;20154;-72
2024/01/14 11:25:48;;;;;;;43.25;22.52;;;;;;;3.84;83.09;99000.03;4973932;28;20153;-73
2024/01/14 11:28:15;;;;;;;44.67;22.65;;;;;;;3.85;82.96;99006.97;4973752;28;20106;-73
2024/01/14 11:30:55;;;;;;;41.65;21.77;;;;;;;3.82;82.70;98988.88;4973471;28;20113;-74